Forside
METAR-TAF:

METAR-TAF

Lufthavne :

Tottori, Japan

Breddekreds: 35-32N, længdekreds: 134-10E, højde: 15 m

Aktuelle vejr

Denne rapport blev lavet for 1 time og 12 minutter siden, kl. 00:00 UTC
Vind 3 kt fra nord
Temperatur 21°C
Fugtighed 83%
Tryk 1011 hPa
Sigt 10 km eller mere
Nogle få skyer i en højde af 4000 ft
Spredte skyer i en højde af 5000 ft
Brudte skyer i en højde af 6000 ft

METAR: RJOR 250000Z 36003KT 9999 FEW040 SCT050 BKN060 21/18 Q1011

Tid: 10:12 (01:12 UTC)


TAF: fraværende

Vejrobservationer og prognoser fra mere end 4000 lufthavne (METAR og TAF).

De gule og røde prikker repræsenterer de meteorologiske stationer.

Flyt musen over at se navnet på stationen.

Så klik over at se vejr observationer og prognoser.

At skifte det kort: Klik på de grønne knapper med et sort kors for at zoome ind; på den grønne knap med en bindestreg for at zoome ud; eller på de grønne pile for tilstødende kort.


METAR-TAF: